sensor_id;sensor_type;location;lat;lon;timestamp;P1;durP1;ratioP1;P2;durP2;ratioP2
8113;SDS011;4099;52.684;9.918;2022-07-29T00:02:01;3.27;;;2.20;;
8113;SDS011;4099;52.684;9.918;2022-07-29T00:07:05;5.43;;;2.67;;
8113;SDS011;4099;52.684;9.918;2022-07-29T00:12:06;3.00;;;1.93;;
8113;SDS011;4099;52.684;9.918;2022-07-29T00:17:09;2.83;;;2.00;;
8113;SDS011;4099;52.684;9.918;2022-07-29T00:22:12;3.97;;;1.90;;
8113;SDS011;4099;52.684;9.918;2022-07-29T00:27:14;4.93;;;1.90;;
8113;SDS011;4099;52.684;9.918;2022-07-29T00:32:15;2.80;;;2.00;;
8113;SDS011;4099;52.684;9.918;2022-07-29T00:37:18;1.90;;;1.73;;
8113;SDS011;4099;52.684;9.918;2022-07-29T00:42:20;3.07;;;1.83;;
8113;SDS011;4099;52.684;9.918;2022-07-29T00:47:22;3.57;;;1.77;;
8113;SDS011;4099;52.684;9.918;2022-07-29T00:52:25;2.87;;;1.97;;
8113;SDS011;4099;52.684;9.918;2022-07-29T00:57:27;2.10;;;1.90;;
8113;SDS011;4099;52.684;9.918;2022-07-29T01:02:29;2.20;;;2.00;;
8113;SDS011;4099;52.684;9.918;2022-07-29T01:07:32;3.30;;;2.30;;
8113;SDS011;4099;52.684;9.918;2022-07-29T01:12:37;4.80;;;2.30;;
8113;SDS011;4099;52.684;9.918;2022-07-29T01:17:42;2.10;;;1.90;;
8113;SDS011;4099;52.684;9.918;2022-07-29T01:22:57;2.87;;;1.97;;
8113;SDS011;4099;52.684;9.918;2022-07-29T01:28:15;3.90;;;1.80;;
8113;SDS011;4099;52.684;9.918;2022-07-29T01:33:35;2.97;;;1.60;;
8113;SDS011;4099;52.684;9.918;2022-07-29T01:38:54;2.73;;;2.00;;
8113;SDS011;4099;52.684;9.918;2022-07-29T01:44:02;7.73;;;2.07;;
8113;SDS011;4099;52.684;9.918;2022-07-29T01:49:15;2.47;;;1.97;;
8113;SDS011;4099;52.684;9.918;2022-07-29T01:54:20;2.73;;;2.10;;
8113;SDS011;4099;52.684;9.918;2022-07-29T01:59:28;4.97;;;2.37;;
8113;SDS011;4099;52.684;9.918;2022-07-29T02:04:31;3.87;;;2.13;;
8113;SDS011;4099;52.684;9.918;2022-07-29T02:09:35;3.63;;;1.60;;
8113;SDS011;4099;52.684;9.918;2022-07-29T02:14:42;2.60;;;1.87;;
8113;SDS011;4099;52.684;9.918;2022-07-29T02:19:47;2.50;;;2.30;;
8113;SDS011;4099;52.684;9.918;2022-07-29T02:24:51;2.83;;;1.87;;
8113;SDS011;4099;52.684;9.918;2022-07-29T02:29:54;2.20;;;1.67;;
8113;SDS011;4099;52.684;9.918;2022-07-29T02:34:59;2.13;;;1.93;;
8113;SDS011;4099;52.684;9.918;2022-07-29T02:40:02;3.60;;;1.90;;
8113;SDS011;4099;52.684;9.918;2022-07-29T02:45:08;3.10;;;2.60;;
8113;SDS011;4099;52.684;9.918;2022-07-29T02:50:12;2.40;;;1.90;;
8113;SDS011;4099;52.684;9.918;2022-07-29T02:55:22;3.57;;;2.00;;
8113;SDS011;4099;52.684;9.918;2022-07-29T03:00:32;4.30;;;2.13;;
8113;SDS011;4099;52.684;9.918;2022-07-29T03:05:38;3.90;;;2.10;;
8113;SDS011;4099;52.684;9.918;2022-07-29T03:10:42;7.53;;;2.40;;
8113;SDS011;4099;52.684;9.918;2022-07-29T03:15:48;3.00;;;2.10;;
8113;SDS011;4099;52.684;9.918;2022-07-29T03:20:50;2.43;;;1.87;;
8113;SDS011;4099;52.684;9.918;2022-07-29T03:25:52;3.90;;;2.50;;
8113;SDS011;4099;52.684;9.918;2022-07-29T03:30:56;3.37;;;2.50;;
8113;SDS011;4099;52.684;9.918;2022-07-29T03:35:58;3.43;;;2.30;;
8113;SDS011;4099;52.684;9.918;2022-07-29T03:41:03;3.03;;;2.60;;
8113;SDS011;4099;52.684;9.918;2022-07-29T03:46:11;3.17;;;2.27;;
8113;SDS011;4099;52.684;9.918;2022-07-29T03:51:17;3.67;;;2.20;;
8113;SDS011;4099;52.684;9.918;2022-07-29T03:56:19;4.10;;;2.30;;
8113;SDS011;4099;52.684;9.918;2022-07-29T04:01:24;4.40;;;2.83;;
8113;SDS011;4099;52.684;9.918;2022-07-29T04:06:27;3.33;;;2.50;;
8113;SDS011;4099;52.684;9.918;2022-07-29T04:11:28;3.83;;;2.53;;
8113;SDS011;4099;52.684;9.918;2022-07-29T04:16:32;4.53;;;2.60;;
8113;SDS011;4099;52.684;9.918;2022-07-29T04:21:36;4.27;;;2.40;;
8113;SDS011;4099;52.684;9.918;2022-07-29T04:26:38;5.27;;;2.60;;
8113;SDS011;4099;52.684;9.918;2022-07-29T04:31:42;4.57;;;2.47;;
8113;SDS011;4099;52.684;9.918;2022-07-29T04:36:44;3.10;;;2.63;;
8113;SDS011;4099;52.684;9.918;2022-07-29T04:41:46;2.83;;;2.63;;
8113;SDS011;4099;52.684;9.918;2022-07-29T04:46:49;5.80;;;2.90;;
8113;SDS011;4099;52.684;9.918;2022-07-29T04:51:51;4.13;;;2.83;;
8113;SDS011;4099;52.684;9.918;2022-07-29T04:56:53;3.50;;;2.50;;
8113;SDS011;4099;52.684;9.918;2022-07-29T05:01:56;4.17;;;2.70;;
8113;SDS011;4099;52.684;9.918;2022-07-29T05:06:58;3.70;;;2.70;;
8113;SDS011;4099;52.684;9.918;2022-07-29T05:12:00;4.33;;;2.80;;
8113;SDS011;4099;52.684;9.918;2022-07-29T05:17:03;6.13;;;3.17;;
8113;SDS011;4099;52.684;9.918;2022-07-29T05:22:05;3.13;;;2.80;;
8113;SDS011;4099;52.684;9.918;2022-07-29T05:27:07;3.73;;;3.20;;
8113;SDS011;4099;52.684;9.918;2022-07-29T05:32:12;3.60;;;3.30;;
8113;SDS011;4099;52.684;9.918;2022-07-29T05:37:14;2.93;;;2.67;;
8113;SDS011;4099;52.684;9.918;2022-07-29T05:42:16;5.57;;;2.90;;
8113;SDS011;4099;52.684;9.918;2022-07-29T05:47:19;6.57;;;3.63;;
8113;SDS011;4099;52.684;9.918;2022-07-29T05:52:21;5.67;;;2.93;;
8113;SDS011;4099;52.684;9.918;2022-07-29T05:57:23;5.83;;;3.20;;
8113;SDS011;4099;52.684;9.918;2022-07-29T06:02:26;4.53;;;2.90;;
8113;SDS011;4099;52.684;9.918;2022-07-29T06:07:28;4.73;;;3.20;;
8113;SDS011;4099;52.684;9.918;2022-07-29T06:12:30;3.87;;;3.10;;
8113;SDS011;4099;52.684;9.918;2022-07-29T06:17:34;6.43;;;3.03;;
8113;SDS011;4099;52.684;9.918;2022-07-29T06:22:35;3.63;;;3.33;;
8113;SDS011;4099;52.684;9.918;2022-07-29T06:27:37;4.60;;;3.20;;
8113;SDS011;4099;52.684;9.918;2022-07-29T06:32:41;4.30;;;2.80;;
8113;SDS011;4099;52.684;9.918;2022-07-29T06:37:43;5.37;;;3.20;;
8113;SDS011;4099;52.684;9.918;2022-07-29T06:42:44;4.37;;;3.23;;
8113;SDS011;4099;52.684;9.918;2022-07-29T06:47:48;5.07;;;3.13;;
8113;SDS011;4099;52.684;9.918;2022-07-29T06:52:49;6.57;;;3.70;;
8113;SDS011;4099;52.684;9.918;2022-07-29T06:57:51;4.30;;;3.40;;
8113;SDS011;4099;52.684;9.918;2022-07-29T07:02:54;5.03;;;3.57;;
8113;SDS011;4099;52.684;9.918;2022-07-29T07:07:56;3.80;;;3.10;;
8113;SDS011;4099;52.684;9.918;2022-07-29T07:12:58;6.67;;;3.33;;
8113;SDS011;4099;52.684;9.918;2022-07-29T07:18:02;3.90;;;3.40;;
8113;SDS011;4099;52.684;9.918;2022-07-29T07:23:05;3.90;;;3.37;;
8113;SDS011;4099;52.684;9.918;2022-07-29T07:28:07;5.50;;;3.63;;
8113;SDS011;4099;52.684;9.918;2022-07-29T07:33:10;3.77;;;3.03;;
8113;SDS011;4099;52.684;9.918;2022-07-29T07:38:12;6.00;;;3.67;;
8113;SDS011;4099;52.684;9.918;2022-07-29T07:43:14;4.57;;;3.23;;
8113;SDS011;4099;52.684;9.918;2022-07-29T07:48:17;5.70;;;3.10;;
8113;SDS011;4099;52.684;9.918;2022-07-29T07:53:19;4.87;;;3.10;;
8113;SDS011;4099;52.684;9.918;2022-07-29T07:58:21;3.23;;;2.90;;
8113;SDS011;4099;52.684;9.918;2022-07-29T08:03:25;4.03;;;2.90;;
8113;SDS011;4099;52.684;9.918;2022-07-29T08:08:27;5.13;;;3.20;;
8113;SDS011;4099;52.684;9.918;2022-07-29T08:13:29;5.00;;;2.80;;
8113;SDS011;4099;52.684;9.918;2022-07-29T08:18:35;3.80;;;2.60;;
8113;SDS011;4099;52.684;9.918;2022-07-29T08:23:38;3.47;;;2.60;;
8113;SDS011;4099;52.684;9.918;2022-07-29T08:28:45;3.73;;;2.63;;
8113;SDS011;4099;52.684;9.918;2022-07-29T08:33:51;2.93;;;2.43;;
8113;SDS011;4099;52.684;9.918;2022-07-29T08:38:53;4.23;;;2.70;;
8113;SDS011;4099;52.684;9.918;2022-07-29T08:43:55;4.83;;;2.50;;
8113;SDS011;4099;52.684;9.918;2022-07-29T08:48:58;3.80;;;2.40;;
8113;SDS011;4099;52.684;9.918;2022-07-29T08:54:00;4.07;;;2.60;;
8113;SDS011;4099;52.684;9.918;2022-07-29T08:59:02;3.20;;;2.40;;
8113;SDS011;4099;52.684;9.918;2022-07-29T09:04:09;3.53;;;2.60;;
8113;SDS011;4099;52.684;9.918;2022-07-29T09:09:13;4.87;;;2.80;;
8113;SDS011;4099;52.684;9.918;2022-07-29T09:14:15;3.07;;;2.73;;
8113;SDS011;4099;52.684;9.918;2022-07-29T09:19:29;6.10;;;2.43;;
8113;SDS011;4099;52.684;9.918;2022-07-29T09:24:42;3.33;;;2.17;;
8113;SDS011;4099;52.684;9.918;2022-07-29T09:29:45;4.97;;;2.50;;
8113;SDS011;4099;52.684;9.918;2022-07-29T09:34:49;4.23;;;2.23;;
8113;SDS011;4099;52.684;9.918;2022-07-29T09:39:51;5.67;;;2.47;;
8113;SDS011;4099;52.684;9.918;2022-07-29T09:44:52;3.07;;;2.23;;
8113;SDS011;4099;52.684;9.918;2022-07-29T09:49:56;3.60;;;2.20;;
8113;SDS011;4099;52.684;9.918;2022-07-29T09:55:04;4.10;;;2.10;;
8113;SDS011;4099;52.684;9.918;2022-07-29T10:00:07;3.40;;;2.10;;
8113;SDS011;4099;52.684;9.918;2022-07-29T10:05:19;2.40;;;2.13;;
8113;SDS011;4099;52.684;9.918;2022-07-29T10:10:23;4.53;;;2.07;;
8113;SDS011;4099;52.684;9.918;2022-07-29T10:15:26;2.83;;;2.20;;
8113;SDS011;4099;52.684;9.918;2022-07-29T10:20:30;4.20;;;2.00;;
8113;SDS011;4099;52.684;9.918;2022-07-29T10:25:32;2.27;;;2.00;;
8113;SDS011;4099;52.684;9.918;2022-07-29T10:30:34;2.43;;;1.90;;
8113;SDS011;4099;52.684;9.918;2022-07-29T10:35:47;3.10;;;2.20;;
8113;SDS011;4099;52.684;9.918;2022-07-29T10:41:01;2.07;;;1.97;;
8113;SDS011;4099;52.684;9.918;2022-07-29T10:46:27;3.90;;;2.27;;
8113;SDS011;4099;52.684;9.918;2022-07-29T10:51:55;3.43;;;2.33;;
8113;SDS011;4099;52.684;9.918;2022-07-29T10:57:04;3.07;;;2.30;;
8113;SDS011;4099;52.684;9.918;2022-07-29T11:13:45;4.90;;;2.00;;
8113;SDS011;4099;52.684;9.918;2022-07-29T11:24:23;4.67;;;2.20;;
8113;SDS011;4099;52.684;9.918;2022-07-29T11:29:29;2.43;;;2.00;;
8113;SDS011;4099;52.684;9.918;2022-07-29T11:34:32;4.07;;;1.87;;
8113;SDS011;4099;52.684;9.918;2022-07-29T11:39:35;3.87;;;2.30;;
8113;SDS011;4099;52.684;9.918;2022-07-29T11:50:17;2.25;;;2.05;;
8113;SDS011;4099;52.684;9.918;2022-07-29T11:55:59;4.15;;;2.38;;
8113;SDS011;4099;52.684;9.918;2022-07-29T12:01:06;2.90;;;2.10;;
8113;SDS011;4099;52.684;9.918;2022-07-29T12:06:20;4.57;;;2.10;;
8113;SDS011;4099;52.684;9.918;2022-07-29T12:11:33;3.00;;;2.10;;
8113;SDS011;4099;52.684;9.918;2022-07-29T12:16:46;3.77;;;2.13;;
8113;SDS011;4099;52.684;9.918;2022-07-29T12:21:51;4.72;;;2.63;;
8113;SDS011;4099;52.684;9.918;2022-07-29T12:26:59;4.70;;;2.17;;
8113;SDS011;4099;52.684;9.918;2022-07-29T12:32:05;4.35;;;2.25;;
8113;SDS011;4099;52.684;9.918;2022-07-29T12:37:14;3.30;;;2.47;;
8113;SDS011;4099;52.684;9.918;2022-07-29T12:42:21;2.55;;;2.30;;
8113;SDS011;4099;52.684;9.918;2022-07-29T12:47:25;2.70;;;2.40;;
8113;SDS011;4099;52.684;9.918;2022-07-29T12:52:31;4.13;;;3.00;;
8113;SDS011;4099;52.684;9.918;2022-07-29T12:57:44;4.03;;;2.67;;
8113;SDS011;4099;52.684;9.918;2022-07-29T13:02:54;2.70;;;2.50;;
8113;SDS011;4099;52.684;9.918;2022-07-29T13:08:10;4.30;;;2.88;;
8113;SDS011;4099;52.684;9.918;2022-07-29T13:13:17;4.03;;;2.92;;
8113;SDS011;4099;52.684;9.918;2022-07-29T13:18:30;7.03;;;3.20;;
8113;SDS011;4099;52.684;9.918;2022-07-29T13:23:43;4.07;;;2.78;;
8113;SDS011;4099;52.684;9.918;2022-07-29T13:28:58;7.30;;;3.20;;
8113;SDS011;4099;52.684;9.918;2022-07-29T13:34:04;3.38;;;3.08;;
8113;SDS011;4099;52.684;9.918;2022-07-29T13:39:15;3.53;;;3.10;;
8113;SDS011;4099;52.684;9.918;2022-07-29T13:44:21;6.05;;;2.75;;
8113;SDS011;4099;52.684;9.918;2022-07-29T13:49:27;4.35;;;3.40;;
8113;SDS011;4099;52.684;9.918;2022-07-29T13:54:34;6.63;;;3.08;;
8113;SDS011;4099;52.684;9.918;2022-07-29T13:59:42;5.47;;;3.58;;
8113;SDS011;4099;52.684;9.918;2022-07-29T14:04:46;4.47;;;2.95;;
8113;SDS011;4099;52.684;9.918;2022-07-29T14:09:53;4.32;;;3.33;;
8113;SDS011;4099;52.684;9.918;2022-07-29T14:14:56;4.72;;;3.42;;
8113;SDS011;4099;52.684;9.918;2022-07-29T14:20:05;4.32;;;3.40;;
8113;SDS011;4099;52.684;9.918;2022-07-29T14:25:13;6.25;;;3.03;;
8113;SDS011;4099;52.684;9.918;2022-07-29T14:30:37;6.40;;;3.08;;
8113;SDS011;4099;52.684;9.918;2022-07-29T14:35:46;3.65;;;2.92;;
8113;SDS011;4099;52.684;9.918;2022-07-29T14:40:57;3.42;;;3.05;;
8113;SDS011;4099;52.684;9.918;2022-07-29T14:46:08;5.43;;;3.20;;
8113;SDS011;4099;52.684;9.918;2022-07-29T14:51:14;5.30;;;3.33;;
8113;SDS011;4099;52.684;9.918;2022-07-29T14:56:23;4.40;;;3.22;;
8113;SDS011;4099;52.684;9.918;2022-07-29T15:01:37;4.45;;;3.00;;
8113;SDS011;4099;52.684;9.918;2022-07-29T15:06:48;4.93;;;3.05;;
8113;SDS011;4099;52.684;9.918;2022-07-29T15:11:54;3.83;;;3.30;;
8113;SDS011;4099;52.684;9.918;2022-07-29T15:16:57;4.80;;;3.50;;
8113;SDS011;4099;52.684;9.918;2022-07-29T15:22:04;5.03;;;3.15;;
8113;SDS011;4099;52.684;9.918;2022-07-29T15:27:09;4.82;;;3.05;;
8113;SDS011;4099;52.684;9.918;2022-07-29T15:32:15;3.92;;;3.30;;
8113;SDS011;4099;52.684;9.918;2022-07-29T15:37:29;6.00;;;3.08;;
8113;SDS011;4099;52.684;9.918;2022-07-29T15:42:37;4.68;;;3.10;;
8113;SDS011;4099;52.684;9.918;2022-07-29T15:47:42;3.40;;;3.10;;
8113;SDS011;4099;52.684;9.918;2022-07-29T15:52:50;5.20;;;3.30;;
8113;SDS011;4099;52.684;9.918;2022-07-29T15:57:58;4.53;;;2.78;;
8113;SDS011;4099;52.684;9.918;2022-07-29T16:03:07;3.85;;;3.15;;
8113;SDS011;4099;52.684;9.918;2022-07-29T16:08:15;8.93;;;3.15;;
8113;SDS011;4099;52.684;9.918;2022-07-29T16:13:29;3.58;;;3.03;;
8113;SDS011;4099;52.684;9.918;2022-07-29T16:18:48;3.78;;;3.00;;
8113;SDS011;4099;52.684;9.918;2022-07-29T16:23:57;3.05;;;2.78;;
8113;SDS011;4099;52.684;9.918;2022-07-29T16:29:06;4.07;;;3.38;;
8113;SDS011;4099;52.684;9.918;2022-07-29T16:34:12;7.28;;;3.17;;
8113;SDS011;4099;52.684;9.918;2022-07-29T16:39:20;3.47;;;3.05;;
8113;SDS011;4099;52.684;9.918;2022-07-29T16:44:39;3.50;;;3.13;;
8113;SDS011;4099;52.684;9.918;2022-07-29T16:49:59;5.93;;;3.22;;
8113;SDS011;4099;52.684;9.918;2022-07-29T16:55:15;5.18;;;3.10;;
8113;SDS011;4099;52.684;9.918;2022-07-29T17:00:25;6.22;;;2.90;;
8113;SDS011;4099;52.684;9.918;2022-07-29T17:05:52;3.28;;;2.83;;
8113;SDS011;4099;52.684;9.918;2022-07-29T17:11:22;3.72;;;3.05;;
8113;SDS011;4099;52.684;9.918;2022-07-29T17:16:46;4.60;;;3.10;;
8113;SDS011;4099;52.684;9.918;2022-07-29T17:21:57;8.27;;;7.47;;
8113;SDS011;4099;52.684;9.918;2022-07-29T17:27:05;7.13;;;6.43;;
8113;SDS011;4099;52.684;9.918;2022-07-29T17:32:29;4.80;;;3.27;;
8113;SDS011;4099;52.684;9.918;2022-07-29T17:37:46;5.43;;;3.70;;
8113;SDS011;4099;52.684;9.918;2022-07-29T17:42:50;3.37;;;3.07;;
8113;SDS011;4099;52.684;9.918;2022-07-29T17:48:00;3.50;;;2.90;;
8113;SDS011;4099;52.684;9.918;2022-07-29T17:53:06;3.60;;;3.30;;
8113;SDS011;4099;52.684;9.918;2022-07-29T17:58:14;4.53;;;3.05;;
8113;SDS011;4099;52.684;9.918;2022-07-29T18:03:28;4.90;;;3.27;;
8113;SDS011;4099;52.684;9.918;2022-07-29T18:08:34;4.60;;;2.87;;
8113;SDS011;4099;52.684;9.918;2022-07-29T18:13:50;5.57;;;2.90;;
8113;SDS011;4099;52.684;9.918;2022-07-29T18:18:57;6.00;;;2.73;;
8113;SDS011;4099;52.684;9.918;2022-07-29T18:24:08;7.00;;;6.30;;
8113;SDS011;4099;52.684;9.918;2022-07-29T18:29:12;8.27;;;7.57;;
8113;SDS011;4099;52.684;9.918;2022-07-29T18:34:18;3.57;;;2.77;;
8113;SDS011;4099;52.684;9.918;2022-07-29T18:39:24;3.70;;;3.37;;
8113;SDS011;4099;52.684;9.918;2022-07-29T18:44:29;7.13;;;3.40;;
8113;SDS011;4099;52.684;9.918;2022-07-29T18:49:37;7.60;;;3.53;;
8113;SDS011;4099;52.684;9.918;2022-07-29T18:54:45;6.03;;;5.43;;
8113;SDS011;4099;52.684;9.918;2022-07-29T18:59:52;4.33;;;3.93;;
8113;SDS011;4099;52.684;9.918;2022-07-29T19:05:01;5.80;;;3.60;;
8113;SDS011;4099;52.684;9.918;2022-07-29T19:10:07;4.13;;;3.40;;
8113;SDS011;4099;52.684;9.918;2022-07-29T19:15:16;4.60;;;3.80;;
8113;SDS011;4099;52.684;9.918;2022-07-29T19:20:28;6.23;;;4.80;;
8113;SDS011;4099;52.684;9.918;2022-07-29T19:25:37;6.00;;;4.87;;
8113;SDS011;4099;52.684;9.918;2022-07-29T19:30:41;6.63;;;6.03;;
8113;SDS011;4099;52.684;9.918;2022-07-29T19:35:51;4.80;;;4.40;;
8113;SDS011;4099;52.684;9.918;2022-07-29T19:40:55;12.17;;;11.07;;
8113;SDS011;4099;52.684;9.918;2022-07-29T19:46:01;11.93;;;7.03;;
8113;SDS011;4099;52.684;9.918;2022-07-29T19:51:06;9.73;;;8.93;;
8113;SDS011;4099;52.684;9.918;2022-07-29T19:56:09;9.40;;;8.57;;
8113;SDS011;4099;52.684;9.918;2022-07-29T20:01:13;14.33;;;12.93;;
8113;SDS011;4099;52.684;9.918;2022-07-29T20:06:20;11.47;;;9.43;;
8113;SDS011;4099;52.684;9.918;2022-07-29T20:11:24;8.73;;;7.93;;
8113;SDS011;4099;52.684;9.918;2022-07-29T20:16:30;7.33;;;6.57;;
8113;SDS011;4099;52.684;9.918;2022-07-29T20:21:37;21.10;;;12.97;;
8113;SDS011;4099;52.684;9.918;2022-07-29T20:26:40;18.07;;;12.03;;
8113;SDS011;4099;52.684;9.918;2022-07-29T20:31:44;9.70;;;7.97;;
8113;SDS011;4099;52.684;9.918;2022-07-29T20:36:54;5.00;;;3.43;;
8113;SDS011;4099;52.684;9.918;2022-07-29T20:42:00;10.80;;;7.03;;
8113;SDS011;4099;52.684;9.918;2022-07-29T20:47:04;9.33;;;5.23;;
8113;SDS011;4099;52.684;9.918;2022-07-29T20:52:12;13.00;;;9.57;;
8113;SDS011;4099;52.684;9.918;2022-07-29T20:57:15;13.93;;;12.43;;
8113;SDS011;4099;52.684;9.918;2022-07-29T21:02:18;9.27;;;4.60;;
8113;SDS011;4099;52.684;9.918;2022-07-29T21:12:46;7.57;;;3.97;;
8113;SDS011;4099;52.684;9.918;2022-07-29T21:17:50;3.93;;;3.00;;
8113;SDS011;4099;52.684;9.918;2022-07-29T21:23:02;4.00;;;3.20;;
8113;SDS011;4099;52.684;9.918;2022-07-29T21:28:05;4.63;;;3.10;;
8113;SDS011;4099;52.684;9.918;2022-07-29T21:33:26;5.00;;;2.73;;
8113;SDS011;4099;52.684;9.918;2022-07-29T21:38:33;5.37;;;3.30;;
8113;SDS011;4099;52.684;9.918;2022-07-29T21:43:38;6.93;;;3.20;;
8113;SDS011;4099;52.684;9.918;2022-07-29T21:48:41;3.20;;;2.90;;
8113;SDS011;4099;52.684;9.918;2022-07-29T21:54:00;5.20;;;3.30;;
8113;SDS011;4099;52.684;9.918;2022-07-29T21:59:07;5.10;;;3.00;;
8113;SDS011;4099;52.684;9.918;2022-07-29T22:04:12;5.43;;;2.90;;
8113;SDS011;4099;52.684;9.918;2022-07-29T22:09:16;4.97;;;3.13;;
8113;SDS011;4099;52.684;9.918;2022-07-29T22:14:22;7.37;;;3.07;;
8113;SDS011;4099;52.684;9.918;2022-07-29T22:19:26;6.70;;;2.93;;
8113;SDS011;4099;52.684;9.918;2022-07-29T22:24:31;3.77;;;2.80;;
8113;SDS011;4099;52.684;9.918;2022-07-29T22:29:34;3.50;;;2.90;;
8113;SDS011;4099;52.684;9.918;2022-07-29T22:34:42;4.90;;;3.10;;
8113;SDS011;4099;52.684;9.918;2022-07-29T22:39:49;5.40;;;3.00;;
8113;SDS011;4099;52.684;9.918;2022-07-29T22:44:52;5.00;;;3.03;;
8113;SDS011;4099;52.684;9.918;2022-07-29T22:49:55;3.30;;;3.00;;
8113;SDS011;4099;52.684;9.918;2022-07-29T22:55:01;4.13;;;3.00;;
8113;SDS011;4099;52.684;9.918;2022-07-29T23:00:05;3.23;;;2.93;;
8113;SDS011;4099;52.684;9.918;2022-07-29T23:05:09;4.17;;;3.17;;
8113;SDS011;4099;52.684;9.918;2022-07-29T23:10:16;7.63;;;3.40;;
8113;SDS011;4099;52.684;9.918;2022-07-29T23:15:20;6.30;;;3.40;;
8113;SDS011;4099;52.684;9.918;2022-07-29T23:20:31;5.40;;;3.53;;
8113;SDS011;4099;52.684;9.918;2022-07-29T23:25:36;3.00;;;2.70;;
8113;SDS011;4099;52.684;9.918;2022-07-29T23:30:40;4.83;;;2.87;;
8113;SDS011;4099;52.684;9.918;2022-07-29T23:35:43;4.43;;;2.90;;
8113;SDS011;4099;52.684;9.918;2022-07-29T23:40:50;4.00;;;2.97;;
8113;SDS011;4099;52.684;9.918;2022-07-29T23:45:54;4.27;;;3.13;;
8113;SDS011;4099;52.684;9.918;2022-07-29T23:50:57;3.63;;;3.30;;
8113;SDS011;4099;52.684;9.918;2022-07-29T23:56:04;8.30;;;3.40;;
